sensor_id;sensor_type;location;lat;lon;timestamp;pressure;altitude;pressure_sealevel;temperature;humidity
49827;BME280;35715;51.570;6.036;2022-10-24T00:02:04;100355.44;;;16.25;86.41
49827;BME280;35715;51.570;6.036;2022-10-24T00:04:35;100360.53;;;16.22;86.50
49827;BME280;35715;51.570;6.036;2022-10-24T00:07:02;100364.81;;;16.20;86.60
49827;BME280;35715;51.570;6.036;2022-10-24T00:09:27;100354.34;;;16.19;86.60
49827;BME280;35715;51.570;6.036;2022-10-24T00:11:53;100354.06;;;16.11;86.80
49827;BME280;35715;51.570;6.036;2022-10-24T00:14:18;100352.38;;;16.13;86.28
49827;BME280;35715;51.570;6.036;2022-10-24T00:16:45;100350.59;;;16.12;85.99
49827;BME280;35715;51.570;6.036;2022-10-24T00:19:11;100349.78;;;16.13;85.98
49827;BME280;35715;51.570;6.036;2022-10-24T00:21:36;100345.34;;;16.10;85.88
49827;BME280;35715;51.570;6.036;2022-10-24T00:24:01;100348.00;;;16.12;85.34
49827;BME280;35715;51.570;6.036;2022-10-24T00:26:30;100347.06;;;16.10;84.84
49827;BME280;35715;51.570;6.036;2022-10-24T00:28:55;100338.56;;;16.14;84.60
49827;BME280;35715;51.570;6.036;2022-10-24T00:31:21;100333.50;;;16.19;84.18
49827;BME280;35715;51.570;6.036;2022-10-24T00:33:47;100331.03;;;16.22;83.59
49827;BME280;35715;51.570;6.036;2022-10-24T00:36:15;100327.56;;;16.23;83.24
49827;BME280;35715;51.570;6.036;2022-10-24T00:38:40;100337.22;;;16.25;82.96
49827;BME280;35715;51.570;6.036;2022-10-24T00:41:06;100334.63;;;16.25;82.65
49827;BME280;35715;51.570;6.036;2022-10-24T00:43:31;100333.75;;;16.25;82.27
49827;BME280;35715;51.570;6.036;2022-10-24T00:45:58;100334.66;;;16.27;81.62
49827;BME280;35715;51.570;6.036;2022-10-24T00:48:32;100333.78;;;16.26;81.95
49827;BME280;35715;51.570;6.036;2022-10-24T00:51:02;100344.31;;;16.29;81.57
49827;BME280;35715;51.570;6.036;2022-10-24T00:53:31;100344.38;;;16.31;81.48
49827;BME280;35715;51.570;6.036;2022-10-24T00:56:00;100335.66;;;16.30;81.03
49827;BME280;35715;51.570;6.036;2022-10-24T00:58:29;100323.53;;;16.31;80.71
49827;BME280;35715;51.570;6.036;2022-10-24T01:00:55;100333.00;;;16.29;80.71
49827;BME280;35715;51.570;6.036;2022-10-24T01:03:21;100322.59;;;16.29;80.82
49827;BME280;35715;51.570;6.036;2022-10-24T01:06:11;100328.47;;;16.23;80.06
49827;BME280;35715;51.570;6.036;2022-10-24T01:20:33;100307.59;;;16.22;78.87
49827;BME280;35715;51.570;6.036;2022-10-24T01:28:29;100322.63;;;16.30;78.13
49827;BME280;35715;51.570;6.036;2022-10-24T01:31:03;100316.66;;;16.33;77.58
49827;BME280;35715;51.570;6.036;2022-10-24T01:33:35;100319.44;;;16.38;77.49
49827;BME280;35715;51.570;6.036;2022-10-24T01:36:29;100310.75;;;16.37;76.53
49827;BME280;35715;51.570;6.036;2022-10-24T01:39:01;100304.78;;;16.40;77.02
49827;BME280;35715;51.570;6.036;2022-10-24T01:41:30;100300.53;;;16.43;76.41
49827;BME280;35715;51.570;6.036;2022-10-24T01:44:08;100294.56;;;16.46;75.64
49827;BME280;35715;51.570;6.036;2022-10-24T01:46:41;100300.75;;;16.49;75.84
49827;BME280;35715;51.570;6.036;2022-10-24T01:49:20;100313.72;;;16.48;75.26
49827;BME280;35715;51.570;6.036;2022-10-24T01:51:50;100296.56;;;16.55;74.78
49827;BME280;35715;51.570;6.036;2022-10-24T01:54:17;100295.84;;;16.59;74.41
49827;BME280;35715;51.570;6.036;2022-10-24T01:56:54;100285.50;;;16.60;73.81
49827;BME280;35715;51.570;6.036;2022-10-24T02:02:00;100280.44;;;16.65;72.92
49827;BME280;35715;51.570;6.036;2022-10-24T02:04:29;100281.50;;;16.70;72.84
49827;BME280;35715;51.570;6.036;2022-10-24T02:07:14;100271.94;;;16.71;72.19
49827;BME280;35715;51.570;6.036;2022-10-24T02:09:43;100269.44;;;16.74;72.63
49827;BME280;35715;51.570;6.036;2022-10-24T02:12:13;100271.22;;;16.75;72.57
49827;BME280;35715;51.570;6.036;2022-10-24T02:14:54;100267.66;;;16.73;71.87
49827;BME280;35715;51.570;6.036;2022-10-24T02:17:28;100270.28;;;16.73;71.34
49827;BME280;35715;51.570;6.036;2022-10-24T02:19:53;100261.72;;;16.77;71.38
49827;BME280;35715;51.570;6.036;2022-10-24T02:25:33;100261.59;;;16.72;70.72
49827;BME280;35715;51.570;6.036;2022-10-24T02:28:02;100255.59;;;16.75;71.37
49827;BME280;35715;51.570;6.036;2022-10-24T02:30:29;100264.13;;;16.71;71.43
49827;BME280;35715;51.570;6.036;2022-10-24T02:32:57;100265.88;;;16.70;71.37
49827;BME280;35715;51.570;6.036;2022-10-24T02:35:29;100262.31;;;16.68;70.94
49827;BME280;35715;51.570;6.036;2022-10-24T02:38:02;100257.91;;;16.65;71.23
49827;BME280;35715;51.570;6.036;2022-10-24T02:40:28;100256.84;;;16.60;71.62
49827;BME280;35715;51.570;6.036;2022-10-24T02:42:55;100263.69;;;16.57;71.46
49827;BME280;35715;51.570;6.036;2022-10-24T02:45:39;100267.72;;;16.48;71.47
49827;BME280;35715;51.570;6.036;2022-10-24T02:48:09;100266.78;;;16.46;71.93
49827;BME280;35715;51.570;6.036;2022-10-24T02:50:38;100264.97;;;16.44;72.03
49827;BME280;35715;51.570;6.036;2022-10-24T02:53:04;100267.56;;;16.44;72.00
49827;BME280;35715;51.570;6.036;2022-10-24T02:55:55;100263.88;;;16.37;71.78
49827;BME280;35715;51.570;6.036;2022-10-24T02:58:21;100261.28;;;16.37;72.14
49827;BME280;35715;51.570;6.036;2022-10-24T03:00:46;100267.19;;;16.33;71.97
49827;BME280;35715;51.570;6.036;2022-10-24T03:03:12;100266.28;;;16.31;72.32
49827;BME280;35715;51.570;6.036;2022-10-24T03:06:14;100265.16;;;16.24;72.00
49827;BME280;35715;51.570;6.036;2022-10-24T03:08:39;100265.09;;;16.23;72.56
49827;BME280;35715;51.570;6.036;2022-10-24T03:11:05;100261.56;;;16.21;72.55
49827;BME280;35715;51.570;6.036;2022-10-24T03:13:30;100269.38;;;16.21;72.38
49827;BME280;35715;51.570;6.036;2022-10-24T03:16:02;100261.56;;;16.21;72.05
49827;BME280;35715;51.570;6.036;2022-10-24T03:18:29;100265.16;;;16.24;71.84
49827;BME280;35715;51.570;6.036;2022-10-24T03:20:54;100276.53;;;16.26;71.72
49827;BME280;35715;51.570;6.036;2022-10-24T03:23:19;100268.66;;;16.25;71.98
49827;BME280;35715;51.570;6.036;2022-10-24T03:25:46;100277.41;;;16.27;71.87
49827;BME280;35715;51.570;6.036;2022-10-24T03:28:11;100271.25;;;16.25;71.85
49827;BME280;35715;51.570;6.036;2022-10-24T03:30:37;100272.13;;;16.25;71.67
49827;BME280;35715;51.570;6.036;2022-10-24T03:33:02;100267.75;;;16.24;71.73
49827;BME280;35715;51.570;6.036;2022-10-24T03:35:29;100268.59;;;16.23;71.73
49827;BME280;35715;51.570;6.036;2022-10-24T03:37:54;100267.66;;;16.21;72.04
49827;BME280;35715;51.570;6.036;2022-10-24T03:40:19;100273.72;;;16.20;71.85
49827;BME280;35715;51.570;6.036;2022-10-24T03:42:45;100267.53;;;16.18;71.66
49827;BME280;35715;51.570;6.036;2022-10-24T03:45:15;100273.72;;;16.20;71.23
49827;BME280;35715;51.570;6.036;2022-10-24T03:47:41;100268.66;;;16.25;71.22
49827;BME280;35715;51.570;6.036;2022-10-24T03:50:07;100271.97;;;16.21;71.07
49827;BME280;35715;51.570;6.036;2022-10-24T03:52:32;100270.19;;;16.20;71.18
49827;BME280;35715;51.570;6.036;2022-10-24T03:54:58;100268.56;;;16.22;71.32
49827;BME280;35715;51.570;6.036;2022-10-24T03:57:26;100263.25;;;16.19;71.54
49827;BME280;35715;51.570;6.036;2022-10-24T03:59:52;100258.91;;;16.19;71.52
49827;BME280;35715;51.570;6.036;2022-10-24T04:02:17;100264.28;;;16.24;71.08
49827;BME280;35715;51.570;6.036;2022-10-24T04:04:42;100273.00;;;16.26;71.01
49827;BME280;35715;51.570;6.036;2022-10-24T04:07:25;100283.31;;;16.23;70.87
49827;BME280;35715;51.570;6.036;2022-10-24T04:09:50;100272.13;;;16.25;71.17
49827;BME280;35715;51.570;6.036;2022-10-24T04:12:15;100268.75;;;16.28;70.75
49827;BME280;35715;51.570;6.036;2022-10-24T04:14:41;100281.69;;;16.25;71.20
49827;BME280;35715;51.570;6.036;2022-10-24T04:17:08;100275.56;;;16.24;70.82
49827;BME280;35715;51.570;6.036;2022-10-24T04:19:33;100273.91;;;16.26;70.88
49827;BME280;35715;51.570;6.036;2022-10-24T04:21:59;100274.75;;;16.25;71.19
49827;BME280;35715;51.570;6.036;2022-10-24T04:24:24;100279.03;;;16.23;70.73
49827;BME280;35715;51.570;6.036;2022-10-24T04:27:01;100283.44;;;16.26;70.15
49827;BME280;35715;51.570;6.036;2022-10-24T04:29:26;100276.69;;;16.31;70.74
49827;BME280;35715;51.570;6.036;2022-10-24T04:31:52;100277.56;;;16.31;70.55
49827;BME280;35715;51.570;6.036;2022-10-24T04:34:17;100275.06;;;16.35;70.54
49827;BME280;35715;51.570;6.036;2022-10-24T04:36:46;100272.50;;;16.36;70.85
49827;BME280;35715;51.570;6.036;2022-10-24T04:39:12;100270.63;;;16.32;70.81
49827;BME280;35715;51.570;6.036;2022-10-24T04:41:37;100265.38;;;16.30;70.72
49827;BME280;35715;51.570;6.036;2022-10-24T04:44:02;100272.50;;;16.36;70.79
49827;BME280;35715;51.570;6.036;2022-10-24T04:46:28;100262.19;;;16.39;70.61
49827;BME280;35715;51.570;6.036;2022-10-24T04:48:53;100276.06;;;16.38;70.81
49827;BME280;35715;51.570;6.036;2022-10-24T04:51:18;100265.56;;;16.35;70.37
49827;BME280;35715;51.570;6.036;2022-10-24T04:53:44;100270.06;;;16.41;70.43
49827;BME280;35715;51.570;6.036;2022-10-24T04:56:25;100271.63;;;16.36;70.33
49827;BME280;35715;51.570;6.036;2022-10-24T04:58:51;100270.75;;;16.35;70.85
49827;BME280;35715;51.570;6.036;2022-10-24T05:01:17;100280.22;;;16.33;70.61
49827;BME280;35715;51.570;6.036;2022-10-24T05:03:42;100280.97;;;16.30;70.80
49827;BME280;35715;51.570;6.036;2022-10-24T05:06:10;100283.53;;;16.29;70.81
49827;BME280;35715;51.570;6.036;2022-10-24T05:08:35;100292.09;;;16.25;71.38
49827;BME280;35715;51.570;6.036;2022-10-24T05:11:01;100288.56;;;16.24;71.48
49827;BME280;35715;51.570;6.036;2022-10-24T05:13:26;100294.59;;;16.22;71.40
49827;BME280;35715;51.570;6.036;2022-10-24T05:15:52;100297.25;;;16.23;71.87
49827;BME280;35715;51.570;6.036;2022-10-24T05:18:17;100287.03;;;16.29;71.85
49827;BME280;35715;51.570;6.036;2022-10-24T05:20:42;100295.88;;;16.35;71.55
49827;BME280;35715;51.570;6.036;2022-10-24T05:23:08;100290.78;;;16.38;71.28
49827;BME280;35715;51.570;6.036;2022-10-24T05:25:35;100302.16;;;16.40;71.27
49827;BME280;35715;51.570;6.036;2022-10-24T05:28:01;100286.66;;;16.43;71.28
49827;BME280;35715;51.570;6.036;2022-10-24T05:30:26;100303.84;;;16.39;71.16
49827;BME280;35715;51.570;6.036;2022-10-24T05:32:51;100296.91;;;16.38;71.23
49827;BME280;35715;51.570;6.036;2022-10-24T05:35:24;100294.25;;;16.37;70.78
49827;BME280;35715;51.570;6.036;2022-10-24T05:37:49;100301.03;;;16.33;71.53
49827;BME280;35715;51.570;6.036;2022-10-24T05:40:15;100291.44;;;16.32;71.40
49827;BME280;35715;51.570;6.036;2022-10-24T05:42:40;100309.69;;;16.32;71.73
49827;BME280;35715;51.570;6.036;2022-10-24T05:45:07;100312.06;;;16.26;71.93
49827;BME280;35715;51.570;6.036;2022-10-24T05:47:32;100311.13;;;16.24;71.85
49827;BME280;35715;51.570;6.036;2022-10-24T05:49:58;100310.19;;;16.22;72.18
49827;BME280;35715;51.570;6.036;2022-10-24T05:52:24;100312.75;;;16.20;72.41
49827;BME280;35715;51.570;6.036;2022-10-24T05:54:50;100319.59;;;16.18;72.62
49827;BME280;35715;51.570;6.036;2022-10-24T05:57:22;100318.72;;;16.18;72.50
49827;BME280;35715;51.570;6.036;2022-10-24T05:59:47;100326.75;;;16.24;72.70
49827;BME280;35715;51.570;6.036;2022-10-24T06:02:16;100316.50;;;16.28;72.42
49827;BME280;35715;51.570;6.036;2022-10-24T06:04:42;100315.72;;;16.31;72.33
49827;BME280;35715;51.570;6.036;2022-10-24T06:07:21;100313.94;;;16.30;72.16
49827;BME280;35715;51.570;6.036;2022-10-24T06:09:47;100322.69;;;16.32;72.36
49827;BME280;35715;51.570;6.036;2022-10-24T06:12:13;100312.47;;;16.37;72.20
49827;BME280;35715;51.570;6.036;2022-10-24T06:14:38;100318.72;;;16.42;72.15
49827;BME280;35715;51.570;6.036;2022-10-24T06:17:09;100324.03;;;16.45;71.95
49827;BME280;35715;51.570;6.036;2022-10-24T06:19:36;100323.25;;;16.47;72.03
49827;BME280;35715;51.570;6.036;2022-10-24T06:22:03;100315.50;;;16.49;72.12
49827;BME280;35715;51.570;6.036;2022-10-24T06:24:28;100300.75;;;16.49;71.61
49827;BME280;35715;51.570;6.036;2022-10-24T06:27:08;100303.19;;;16.45;71.52
49827;BME280;35715;51.570;6.036;2022-10-24T06:29:33;100307.44;;;16.41;71.85
49827;BME280;35715;51.570;6.036;2022-10-24T06:32:00;100316.06;;;16.40;71.73
49827;BME280;35715;51.570;6.036;2022-10-24T06:34:25;100325.44;;;16.35;72.05
49827;BME280;35715;51.570;6.036;2022-10-24T06:36:56;100316.50;;;16.28;72.34
49827;BME280;35715;51.570;6.036;2022-10-24T06:39:21;100328.59;;;16.26;72.53
49827;BME280;35715;51.570;6.036;2022-10-24T06:41:49;100332.88;;;16.26;72.86
49827;BME280;35715;51.570;6.036;2022-10-24T06:44:15;100335.31;;;16.21;72.40
49827;BME280;35715;51.570;6.036;2022-10-24T06:46:48;100331.72;;;16.18;72.59
49827;BME280;35715;51.570;6.036;2022-10-24T06:49:13;100335.09;;;16.15;72.84
49827;BME280;35715;51.570;6.036;2022-10-24T06:51:40;100344.56;;;16.13;73.18
49827;BME280;35715;51.570;6.036;2022-10-24T06:54:06;100344.47;;;16.10;72.82
49827;BME280;35715;51.570;6.036;2022-10-24T06:57:01;100341.00;;;16.09;72.83
49827;BME280;35715;51.570;6.036;2022-10-24T06:59:27;100340.09;;;16.09;72.91
49827;BME280;35715;51.570;6.036;2022-10-24T07:01:52;100347.84;;;16.07;73.60
49827;BME280;35715;51.570;6.036;2022-10-24T07:04:17;100353.94;;;16.08;73.61
49827;BME280;35715;51.570;6.036;2022-10-24T07:06:53;100347.84;;;16.07;73.04
49827;BME280;35715;51.570;6.036;2022-10-24T07:09:19;100361.81;;;16.09;73.59
49827;BME280;35715;51.570;6.036;2022-10-24T07:11:44;100349.72;;;16.11;73.44
49827;BME280;35715;51.570;6.036;2022-10-24T07:14:10;100353.22;;;16.12;73.21
49827;BME280;35715;51.570;6.036;2022-10-24T07:16:38;100359.50;;;16.17;73.23
49827;BME280;35715;51.570;6.036;2022-10-24T07:19:04;100364.91;;;16.23;72.97
49827;BME280;35715;51.570;6.036;2022-10-24T07:21:31;100365.97;;;16.28;73.38
49827;BME280;35715;51.570;6.036;2022-10-24T07:23:57;100371.00;;;16.24;73.06
49827;BME280;35715;51.570;6.036;2022-10-24T07:26:25;100367.63;;;16.26;72.97
49827;BME280;35715;51.570;6.036;2022-10-24T07:28:52;100363.47;;;16.31;73.17
49827;BME280;35715;51.570;6.036;2022-10-24T07:31:23;100360.22;;;16.37;73.17
49827;BME280;35715;51.570;6.036;2022-10-24T07:33:50;100364.28;;;16.55;72.48
49827;BME280;35715;51.570;6.036;2022-10-24T07:36:23;100370.72;;;16.64;72.34
49827;BME280;35715;51.570;6.036;2022-10-24T07:38:51;100377.03;;;16.71;72.09
49827;BME280;35715;51.570;6.036;2022-10-24T07:41:17;100376.22;;;16.72;72.11
49827;BME280;35715;51.570;6.036;2022-10-24T07:46:47;100377.66;;;16.64;71.25
49827;BME280;35715;51.570;6.036;2022-10-24T07:49:13;100391.84;;;16.72;71.57
49827;BME280;35715;51.570;6.036;2022-10-24T07:51:40;100388.63;;;16.79;71.22
49827;BME280;35715;51.570;6.036;2022-10-24T07:54:08;100387.19;;;16.88;71.08
49827;BME280;35715;51.570;6.036;2022-10-24T07:56:36;100399.44;;;16.90;71.15
49827;BME280;35715;51.570;6.036;2022-10-24T07:59:02;100393.53;;;16.94;70.92
49827;BME280;35715;51.570;6.036;2022-10-24T08:01:43;100403.09;;;16.95;71.29
49827;BME280;35715;51.570;6.036;2022-10-24T08:04:10;100394.44;;;16.96;70.89
49827;BME280;35715;51.570;6.036;2022-10-24T08:06:35;100403.13;;;16.97;71.17
49827;BME280;35715;51.570;6.036;2022-10-24T08:09:01;100397.94;;;16.97;70.99
49827;BME280;35715;51.570;6.036;2022-10-24T08:11:27;100398.13;;;17.03;70.92
49827;BME280;35715;51.570;6.036;2022-10-24T08:13:57;100401.69;;;17.05;70.43
49827;BME280;35715;51.570;6.036;2022-10-24T08:16:26;100398.03;;;17.00;70.51
49827;BME280;35715;51.570;6.036;2022-10-24T08:18:54;100401.00;;;17.11;70.42
49827;BME280;35715;51.570;6.036;2022-10-24T08:21:21;100404.66;;;17.16;70.14
49827;BME280;35715;51.570;6.036;2022-10-24T08:23:54;100408.09;;;17.15;70.03
49827;BME280;35715;51.570;6.036;2022-10-24T08:26:23;100415.88;;;17.13;70.24
49827;BME280;35715;51.570;6.036;2022-10-24T08:28:51;100412.44;;;17.14;70.65
49827;BME280;35715;51.570;6.036;2022-10-24T08:31:20;100427.66;;;17.28;70.36
49827;BME280;35715;51.570;6.036;2022-10-24T08:33:47;100422.84;;;17.40;70.28
49827;BME280;35715;51.570;6.036;2022-10-24T08:36:19;100430.84;;;17.45;69.92
49827;BME280;35715;51.570;6.036;2022-10-24T08:38:50;100424.78;;;17.46;69.71
49827;BME280;35715;51.570;6.036;2022-10-24T08:43:55;100439.09;;;17.59;69.86
49827;BME280;35715;51.570;6.036;2022-10-24T08:52:13;100447.41;;;17.47;68.73
49827;BME280;35715;51.570;6.036;2022-10-24T08:54:43;100448.50;;;17.53;69.57
49827;BME280;35715;51.570;6.036;2022-10-24T08:57:31;100443.19;;;17.50;68.80
49827;BME280;35715;51.570;6.036;2022-10-24T09:00:00;100452.09;;;17.57;69.32
49827;BME280;35715;51.570;6.036;2022-10-24T09:02:31;100454.72;;;17.57;69.55
49827;BME280;35715;51.570;6.036;2022-10-24T09:05:29;100450.22;;;17.53;69.92
49827;BME280;35715;51.570;6.036;2022-10-24T09:08:04;100451.84;;;17.49;69.81
49827;BME280;35715;51.570;6.036;2022-10-24T09:10:47;100452.66;;;17.48;69.61
49827;BME280;35715;51.570;6.036;2022-10-24T09:13:15;100473.50;;;17.47;70.16
49827;BME280;35715;51.570;6.036;2022-10-24T09:15:45;100456.09;;;17.46;69.91
49827;BME280;35715;51.570;6.036;2022-10-24T09:18:33;100472.34;;;17.38;69.39
49827;BME280;35715;51.570;6.036;2022-10-24T09:21:18;100468.06;;;17.41;69.68
49827;BME280;35715;51.570;6.036;2022-10-24T09:24:30;100466.31;;;17.40;69.69
49827;BME280;35715;51.570;6.036;2022-10-24T09:27:37;100462.97;;;17.44;69.89
49827;BME280;35715;51.570;6.036;2022-10-24T09:30:05;100469.91;;;17.43;69.59
49827;BME280;35715;51.570;6.036;2022-10-24T09:32:34;100473.44;;;17.45;69.59
49827;BME280;35715;51.570;6.036;2022-10-24T09:35:05;100471.69;;;17.44;70.63
49827;BME280;35715;51.570;6.036;2022-10-24T09:37:50;100476.41;;;17.30;70.89
49827;BME280;35715;51.570;6.036;2022-10-24T09:40:29;100476.59;;;17.62;69.98
49827;BME280;35715;51.570;6.036;2022-10-24T09:48:56;100484.28;;;18.39;69.08
49827;BME280;35715;51.570;6.036;2022-10-24T09:51:32;100478.81;;;18.60;67.94
49827;BME280;35715;51.570;6.036;2022-10-24T09:54:44;100483.13;;;18.89;66.72
49827;BME280;35715;51.570;6.036;2022-10-24T09:59:35;100489.53;;;20.02;63.81
49827;BME280;35715;51.570;6.036;2022-10-24T10:02:25;100501.00;;;20.07;59.81
49827;BME280;35715;51.570;6.036;2022-10-24T10:07:50;100488.22;;;20.21;58.72
49827;BME280;35715;51.570;6.036;2022-10-24T10:10:39;100503.41;;;20.76;57.53
49827;BME280;35715;51.570;6.036;2022-10-24T10:15:58;100508.53;;;21.14;56.53
49827;BME280;35715;51.570;6.036;2022-10-24T10:18:33;100496.59;;;20.84;58.32
49827;BME280;35715;51.570;6.036;2022-10-24T10:24:40;100507.56;;;20.66;57.39
49827;BME280;35715;51.570;6.036;2022-10-24T10:27:27;100504.94;;;20.26;58.49
49827;BME280;35715;51.570;6.036;2022-10-24T10:35:14;100508.88;;;20.86;57.29
49827;BME280;35715;51.570;6.036;2022-10-24T10:41:01;100514.09;;;20.45;58.03
49827;BME280;35715;51.570;6.036;2022-10-24T10:52:32;100517.81;;;20.55;56.56
49827;BME280;35715;51.570;6.036;2022-10-24T10:55:36;100519.44;;;20.12;56.21
49827;BME280;35715;51.570;6.036;2022-10-24T10:58:22;100526.94;;;19.96;56.93
49827;BME280;35715;51.570;6.036;2022-10-24T11:08:05;100536.44;;;19.58;57.61
49827;BME280;35715;51.570;6.036;2022-10-24T11:10:39;100540.38;;;19.42;56.98
49827;BME280;35715;51.570;6.036;2022-10-24T11:13:14;100548.13;;;19.39;57.00
49827;BME280;35715;51.570;6.036;2022-10-24T11:15:43;100554.06;;;19.33;57.94
49827;BME280;35715;51.570;6.036;2022-10-24T11:18:16;100558.84;;;19.16;58.53
49827;BME280;35715;51.570;6.036;2022-10-24T11:20:50;100552.47;;;19.06;57.53
49827;BME280;35715;51.570;6.036;2022-10-24T11:23:27;100563.69;;;19.02;57.98
49827;BME280;35715;51.570;6.036;2022-10-24T11:26:02;100561.22;;;19.07;57.97
49827;BME280;35715;51.570;6.036;2022-10-24T11:31:17;100556.56;;;20.67;54.90
49827;BME280;35715;51.570;6.036;2022-10-24T11:37:01;100556.28;;;23.92;44.56
49827;BME280;35715;51.570;6.036;2022-10-24T11:39:57;100552.31;;;24.56;43.78
49827;BME280;35715;51.570;6.036;2022-10-24T11:43:03;100559.06;;;24.13;43.98
49827;BME280;35715;51.570;6.036;2022-10-24T11:48:19;100558.22;;;22.57;47.59
49827;BME280;35715;51.570;6.036;2022-10-24T11:51:20;100556.09;;;22.96;46.96
49827;BME280;35715;51.570;6.036;2022-10-24T11:54:16;100553.06;;;22.65;46.03
49827;BME280;35715;51.570;6.036;2022-10-24T11:56:46;100556.97;;;22.96;45.72
49827;BME280;35715;51.570;6.036;2022-10-24T11:59:20;100589.56;;;23.06;45.28
49827;BME280;35715;51.570;6.036;2022-10-24T12:05:20;100570.56;;;21.56;48.52
49827;BME280;35715;51.570;6.036;2022-10-24T12:10:33;100569.28;;;22.99;45.44
49827;BME280;35715;51.570;6.036;2022-10-24T12:13:30;100581.56;;;22.36;46.88
49827;BME280;35715;51.570;6.036;2022-10-24T12:16:22;100580.88;;;22.47;47.42
49827;BME280;35715;51.570;6.036;2022-10-24T12:18:59;100575.09;;;21.63;48.43
49827;BME280;35715;51.570;6.036;2022-10-24T12:21:34;100582.25;;;21.26;49.90
49827;BME280;35715;51.570;6.036;2022-10-24T12:24:02;100576.19;;;21.30;50.96
49827;BME280;35715;51.570;6.036;2022-10-24T12:26:35;100574.19;;;21.17;49.57
49827;BME280;35715;51.570;6.036;2022-10-24T12:29:05;100572.38;;;21.14;49.25
49827;BME280;35715;51.570;6.036;2022-10-24T12:31:43;100576.41;;;20.98;49.92
49827;BME280;35715;51.570;6.036;2022-10-24T12:39:48;100585.59;;;20.76;50.43
49827;BME280;35715;51.570;6.036;2022-10-24T12:53:03;100596.09;;;20.39;53.91
49827;BME280;35715;51.570;6.036;2022-10-24T12:58:21;100597.28;;;20.17;55.03
49827;BME280;35715;51.570;6.036;2022-10-24T13:09:36;100605.50;;;19.96;56.90
49827;BME280;35715;51.570;6.036;2022-10-24T13:12:46;100604.59;;;19.94;57.34
49827;BME280;35715;51.570;6.036;2022-10-24T13:18:18;100607.88;;;19.87;58.39
49827;BME280;35715;51.570;6.036;2022-10-24T13:20:48;100598.38;;;19.91;59.48
49827;BME280;35715;51.570;6.036;2022-10-24T13:23:23;100594.44;;;20.08;59.85
49827;BME280;35715;51.570;6.036;2022-10-24T13:26:00;100598.72;;;20.03;60.23
49827;BME280;35715;51.570;6.036;2022-10-24T13:33:42;100599.88;;;19.81;61.07
49827;BME280;35715;51.570;6.036;2022-10-24T13:38:40;100599.03;;;19.82;61.32
49827;BME280;35715;51.570;6.036;2022-10-24T13:41:09;100602.72;;;19.90;61.62
49827;BME280;35715;51.570;6.036;2022-10-24T13:43:43;100604.44;;;19.88;61.85
49827;BME280;35715;51.570;6.036;2022-10-24T13:46:30;100592.66;;;19.74;60.59
49827;BME280;35715;51.570;6.036;2022-10-24T13:48:57;100603.09;;;19.72;61.01
49827;BME280;35715;51.570;6.036;2022-10-24T13:54:14;100617.19;;;19.45;61.17
49827;BME280;35715;51.570;6.036;2022-10-24T13:56:48;100617.19;;;19.45;60.94
49827;BME280;35715;51.570;6.036;2022-10-24T13:59:36;100613.91;;;19.53;61.05
49827;BME280;35715;51.570;6.036;2022-10-24T14:02:24;100608.72;;;19.54;62.05
49827;BME280;35715;51.570;6.036;2022-10-24T14:04:50;100612.13;;;19.50;62.03
49827;BME280;35715;51.570;6.036;2022-10-24T14:07:22;100618.97;;;19.46;62.74
49827;BME280;35715;51.570;6.036;2022-10-24T14:09:55;100611.66;;;19.35;63.62
49827;BME280;35715;51.570;6.036;2022-10-24T14:12:23;100606.09;;;19.22;64.08
49827;BME280;35715;51.570;6.036;2022-10-24T14:14:51;100608.72;;;19.22;64.86
49827;BME280;35715;51.570;6.036;2022-10-24T14:17:26;100614.56;;;19.13;65.41
49827;BME280;35715;51.570;6.036;2022-10-24T14:20:01;100617.03;;;19.09;65.62
49827;BME280;35715;51.570;6.036;2022-10-24T14:22:38;100622.19;;;19.06;65.74
49827;BME280;35715;51.570;6.036;2022-10-24T14:25:24;100623.84;;;19.02;65.58
49827;BME280;35715;51.570;6.036;2022-10-24T14:27:52;100625.53;;;19.00;66.09
49827;BME280;35715;51.570;6.036;2022-10-24T14:30:20;100638.38;;;18.94;65.74
49827;BME280;35715;51.570;6.036;2022-10-24T14:32:46;100640.78;;;18.86;66.35
49827;BME280;35715;51.570;6.036;2022-10-24T14:35:21;100643.13;;;18.78;66.28
49827;BME280;35715;51.570;6.036;2022-10-24T14:37:46;100634.44;;;18.79;66.54
49827;BME280;35715;51.570;6.036;2022-10-24T14:40:16;100644.66;;;18.72;66.93
49827;BME280;35715;51.570;6.036;2022-10-24T14:42:44;100642.84;;;18.69;66.84
49827;BME280;35715;51.570;6.036;2022-10-24T14:45:30;100651.41;;;18.65;67.73
49827;BME280;35715;51.570;6.036;2022-10-24T14:47:58;100648.84;;;18.67;67.37
49827;BME280;35715;51.570;6.036;2022-10-24T14:50:42;100651.31;;;18.62;67.43
49827;BME280;35715;51.570;6.036;2022-10-24T14:53:34;100645.84;;;18.54;67.73
49827;BME280;35715;51.570;6.036;2022-10-24T14:56:31;100649.22;;;18.50;68.13
49827;BME280;35715;51.570;6.036;2022-10-24T14:58:59;100654.41;;;18.49;68.33
49827;BME280;35715;51.570;6.036;2022-10-24T15:01:25;100654.41;;;18.49;68.65
49827;BME280;35715;51.570;6.036;2022-10-24T15:03:56;100650.00;;;18.48;68.55
49827;BME280;35715;51.570;6.036;2022-10-24T15:06:48;100648.94;;;18.42;68.63
49827;BME280;35715;51.570;6.036;2022-10-24T15:09:16;100669.84;;;18.42;68.28
49827;BME280;35715;51.570;6.036;2022-10-24T15:11:46;100655.81;;;18.39;68.35
49827;BME280;35715;51.570;6.036;2022-10-24T15:14:32;100663.59;;;18.37;68.35
49827;BME280;35715;51.570;6.036;2022-10-24T15:17:28;100666.09;;;18.34;68.83
49827;BME280;35715;51.570;6.036;2022-10-24T15:19:59;100670.56;;;18.37;68.73
49827;BME280;35715;51.570;6.036;2022-10-24T15:22:29;100668.66;;;18.33;68.47
49827;BME280;35715;51.570;6.036;2022-10-24T15:24:58;100667.84;;;18.34;68.94
49827;BME280;35715;51.570;6.036;2022-10-24T15:27:30;100672.00;;;18.29;68.72